createdAt,value
2023-05-08T00:00:37.084Z,1.80
2023-05-08T00:05:42.614Z,1.70
2023-05-08T00:10:45.231Z,1.60
2023-05-08T00:15:47.814Z,1.60
2023-05-08T00:20:50.543Z,1.50
2023-05-08T00:25:52.947Z,1.40
2023-05-08T00:30:55.499Z,1.30
2023-05-08T00:36:05.354Z,1.30
2023-05-08T00:41:08.088Z,1.30
2023-05-08T00:46:11.672Z,1.40
2023-05-08T00:51:15.246Z,1.30
2023-05-08T00:56:20.731Z,1.30
2023-05-08T01:01:23.898Z,1.30
2023-05-08T01:06:26.786Z,1.40
2023-05-08T01:12:13.445Z,1.30
2023-05-08T01:17:31.145Z,1.20
2023-05-08T01:23:24.009Z,1.20
2023-05-08T01:28:53.697Z,1.10
2023-05-08T01:34:02.165Z,1.10
2023-05-08T01:39:11.187Z,1.00
2023-05-08T01:44:21.472Z,0.90
2023-05-08T01:49:25.657Z,0.90
2023-05-08T01:54:34.002Z,0.80
2023-05-08T01:59:38.422Z,0.80
2023-05-08T02:04:43.361Z,0.70
2023-05-08T02:09:47.005Z,0.70
2023-05-08T02:14:53.130Z,0.60
2023-05-08T02:19:58.164Z,0.60
2023-05-08T02:25:01.785Z,0.60
2023-05-08T02:30:05.055Z,0.60
2023-05-08T02:35:09.236Z,0.50
2023-05-08T02:40:14.339Z,0.50
2023-05-08T02:45:17.427Z,0.50
2023-05-08T02:50:27.276Z,0.50
2023-05-08T02:55:50.712Z,0.40
2023-05-08T03:01:06.751Z,0.40
2023-05-08T03:06:17.130Z,0.40
2023-05-08T03:11:24.347Z,0.40
2023-05-08T03:16:31.982Z,0.30
2023-05-08T03:21:37.346Z,0.30
2023-05-08T03:26:40.137Z,0.30
2023-05-08T03:31:43.566Z,0.30
2023-05-08T03:36:46.804Z,0.30
2023-05-08T03:41:50.029Z,0.30
2023-05-08T03:46:56.048Z,0.30
2023-05-08T03:51:59.539Z,0.40
2023-05-08T03:57:02.216Z,0.40
2023-05-08T04:02:25.691Z,0.60
2023-05-08T04:07:33.933Z,0.70
2023-05-08T04:13:35.133Z,1.00
2023-05-08T04:18:44.326Z,1.00
2023-05-08T04:23:51.198Z,1.20
2023-05-08T04:28:54.286Z,1.40
2023-05-08T04:33:58.227Z,1.90
2023-05-08T04:39:01.071Z,2.30
2023-05-08T04:44:05.359Z,2.50
2023-05-08T04:49:08.126Z,2.80
2023-05-08T04:54:11.376Z,3.10
2023-05-08T04:59:15.998Z,3.60
2023-05-08T05:04:19.403Z,4.60
2023-05-08T05:09:22.089Z,5.00
2023-05-08T05:14:24.948Z,5.40
2023-05-08T05:19:27.709Z,5.80
2023-05-08T05:24:30.425Z,6.00
2023-05-08T05:29:33.982Z,6.30
2023-05-08T05:39:39.808Z,7.00
2023-05-08T05:44:42.669Z,7.40
2023-05-08T05:49:47.391Z,7.70
2023-05-08T05:54:50.972Z,7.80
2023-05-08T05:59:54.853Z,8.20
2023-05-08T06:04:59.372Z,8.40
2023-05-08T06:10:02.229Z,8.60
2023-05-08T06:15:05.250Z,9.00
2023-05-08T06:20:08.710Z,9.40
2023-05-08T06:25:11.406Z,9.50
2023-05-08T06:30:14.198Z,9.80
2023-05-08T06:35:18.618Z,9.90
2023-05-08T06:40:21.241Z,10.30
2023-05-08T06:45:23.752Z,10.50
2023-05-08T06:50:26.284Z,10.70
2023-05-08T06:55:28.839Z,10.90
2023-05-08T07:00:32.361Z,11.10
2023-05-08T07:05:34.828Z,11.40
2023-05-08T07:10:37.278Z,11.70
2023-05-08T07:15:39.801Z,11.90
2023-05-08T07:20:42.337Z,12.00
2023-05-08T07:25:44.822Z,12.20
2023-05-08T07:30:47.474Z,12.30
2023-05-08T07:35:49.897Z,12.60
2023-05-08T07:40:57.119Z,12.70
2023-05-08T07:45:59.800Z,12.80
2023-05-08T07:51:02.352Z,13.10
2023-05-08T07:56:05.726Z,13.10
2023-05-08T08:01:08.154Z,13.40
2023-05-08T08:06:10.775Z,13.60
2023-05-08T08:11:13.315Z,13.80
2023-05-08T08:16:15.783Z,14.00
2023-05-08T08:21:18.470Z,14.10
2023-05-08T08:26:21.045Z,14.30
2023-05-08T08:31:23.732Z,14.20
2023-05-08T08:36:26.313Z,14.10
2023-05-08T08:41:29.461Z,14.20
2023-05-08T08:51:51.244Z,14.60
2023-05-08T08:56:55.908Z,14.50
2023-05-08T09:02:05.948Z,14.60
2023-05-08T09:07:09.076Z,14.70
2023-05-08T09:12:14.439Z,14.80
2023-05-08T09:17:16.891Z,14.90
2023-05-08T09:22:21.224Z,14.90
2023-05-08T09:27:25.853Z,15.00
2023-05-08T09:32:29.758Z,15.00
2023-05-08T09:37:32.458Z,15.10
2023-05-08T10:08:23.304Z,15.40
2023-05-08T10:13:26.283Z,15.30
2023-05-08T10:18:35.546Z,15.40
2023-05-08T10:23:42.439Z,15.30
2023-05-08T10:29:08.869Z,15.30
2023-05-08T10:34:17.374Z,15.30
2023-05-08T10:39:20.823Z,15.40
2023-05-08T10:44:24.484Z,15.50
2023-05-08T10:49:51.853Z,15.50
2023-05-08T10:54:54.230Z,15.60
2023-05-08T10:59:56.788Z,15.60
2023-05-08T11:05:18.433Z,15.70
2023-05-08T11:10:21.165Z,15.70
2023-05-08T11:15:40.687Z,15.70
2023-05-08T11:20:57.709Z,15.70
2023-05-08T11:26:05.553Z,15.70
2023-05-08T11:31:08.959Z,15.70
2023-05-08T11:36:20.671Z,15.80
2023-05-08T11:41:24.596Z,15.70
2023-05-08T11:46:41.175Z,15.70
2023-05-08T11:51:54.828Z,15.80
2023-05-08T11:56:57.650Z,15.80
2023-05-08T12:02:08.454Z,15.80
2023-05-08T12:07:11.933Z,15.90
2023-05-08T12:12:14.455Z,15.90
2023-05-08T12:17:20.172Z,15.90
2023-05-08T12:22:22.718Z,16.00
2023-05-08T12:27:25.241Z,16.00
2023-05-08T12:32:29.092Z,16.00
2023-05-08T12:37:31.811Z,16.00
2023-05-08T12:42:43.914Z,16.00
2023-05-08T12:47:50.954Z,16.00
2023-05-08T12:52:54.082Z,16.00
2023-05-08T12:58:15.460Z,16.00
2023-05-08T13:03:26.691Z,15.90
2023-05-08T13:08:33.585Z,15.90
2023-05-08T13:13:37.137Z,16.00
2023-05-08T13:18:39.830Z,15.90
2023-05-08T13:23:43.505Z,15.90
2023-05-08T13:28:46.184Z,16.00
2023-05-08T13:33:48.616Z,16.10
2023-05-08T13:38:57.230Z,16.00
2023-05-08T13:44:11.120Z,16.10
2023-05-08T13:49:13.607Z,16.20
2023-05-08T13:54:16.168Z,16.10
2023-05-08T13:59:18.552Z,16.10
2023-05-08T14:04:21.103Z,16.20
2023-05-08T14:09:23.584Z,16.30
2023-05-08T14:14:26.032Z,16.20
2023-05-08T14:19:28.425Z,16.10
2023-05-08T14:24:30.830Z,16.10
2023-05-08T14:29:34.277Z,16.20
2023-05-08T14:34:36.931Z,16.30
2023-05-08T14:39:39.615Z,16.30
2023-05-08T14:44:42.245Z,16.30
2023-05-08T14:49:44.856Z,16.30
2023-05-08T14:54:53.053Z,16.20
2023-05-08T14:59:57.169Z,16.20
2023-05-08T15:04:59.804Z,16.20
2023-05-08T15:10:03.308Z,16.10
2023-05-08T15:15:06.380Z,16.10
2023-05-08T15:20:09.860Z,16.20
2023-05-08T15:25:28.396Z,16.10
2023-05-08T15:30:56.540Z,16.10
2023-05-08T15:35:58.965Z,16.10
2023-05-08T15:41:01.337Z,16.20
2023-05-08T15:46:03.953Z,16.10
2023-05-08T15:51:06.430Z,16.00
2023-05-08T15:56:09.200Z,16.00
2023-05-08T16:01:11.733Z,16.00
2023-05-08T16:06:14.219Z,15.90
2023-05-08T16:11:16.725Z,16.00
2023-05-08T16:16:19.294Z,15.80
2023-05-08T16:21:22.783Z,15.80
2023-05-08T16:26:26.352Z,15.80
2023-05-08T16:31:29.139Z,16.00
2023-05-08T16:36:31.837Z,16.10
2023-05-08T16:41:34.382Z,16.10
2023-05-08T16:46:36.814Z,16.10
2023-05-08T16:51:39.360Z,16.10
2023-05-08T16:56:41.855Z,16.20
2023-05-08T17:01:44.532Z,16.10
2023-05-08T17:06:47.265Z,16.00
2023-05-08T17:11:49.731Z,15.90
2023-05-08T17:16:52.094Z,15.70
2023-05-08T17:21:54.462Z,15.60
2023-05-08T17:26:56.944Z,15.40
2023-05-08T17:31:59.435Z,15.10
2023-05-08T17:37:02.062Z,15.00
2023-05-08T17:42:04.645Z,14.60
2023-05-08T17:47:07.126Z,14.40
2023-05-08T17:52:09.689Z,14.20
2023-05-08T17:57:12.260Z,13.90
2023-05-08T18:02:14.914Z,13.50
2023-05-08T18:07:17.648Z,13.40
2023-05-08T18:12:20.237Z,13.20
2023-05-08T18:17:23.103Z,13.10
2023-05-08T18:27:28.874Z,12.50
2023-05-08T18:32:31.393Z,12.20
2023-05-08T18:37:34.712Z,11.90
2023-05-08T18:42:37.426Z,11.70
2023-05-08T18:47:40.023Z,11.40
2023-05-08T18:52:42.537Z,11.30
2023-05-08T18:57:44.959Z,11.20
2023-05-08T19:02:47.544Z,11.00
2023-05-08T19:07:50.083Z,10.80
2023-05-08T19:12:52.718Z,10.70
2023-05-08T19:17:55.223Z,10.40
2023-05-08T19:22:57.904Z,10.10
2023-05-08T19:28:00.397Z,9.90
2023-05-08T19:33:03.006Z,9.70
2023-05-08T19:38:05.642Z,9.40
2023-05-08T19:43:08.148Z,9.50
2023-05-08T19:48:17.367Z,9.40
2023-05-08T19:53:20.675Z,9.20
2023-05-08T19:58:23.466Z,8.60
2023-05-08T20:03:26.386Z,8.20
2023-05-08T20:08:29.249Z,8.10
2023-05-08T20:13:31.761Z,7.90
2023-05-08T20:18:35.637Z,7.60
2023-05-08T20:23:39.845Z,7.30
2023-05-08T20:28:42.292Z,7.10
2023-05-08T20:33:44.742Z,6.90
2023-05-08T20:38:47.386Z,6.70
2023-05-08T20:43:49.890Z,6.60
2023-05-08T20:48:52.435Z,6.40
2023-05-08T20:53:54.933Z,6.20
2023-05-08T21:04:00.191Z,6.00
2023-05-08T21:09:04.106Z,5.90
2023-05-08T21:14:08.384Z,6.00
2023-05-08T21:19:13.928Z,6.20
2023-05-08T21:24:16.431Z,6.50
2023-05-08T21:29:19.238Z,6.70
2023-05-08T21:34:21.812Z,6.70
2023-05-08T21:39:24.550Z,6.70
2023-05-08T21:44:27.022Z,6.70
2023-05-08T21:49:29.507Z,6.70
2023-05-08T21:54:31.955Z,6.70
2023-05-08T21:59:34.493Z,6.60
2023-05-08T22:04:36.974Z,6.40
2023-05-08T22:09:39.373Z,6.30
2023-05-08T22:14:42.210Z,6.00
2023-05-08T22:24:47.385Z,5.70
2023-05-08T22:29:49.845Z,5.60
2023-05-08T22:34:52.462Z,5.40
2023-05-08T22:39:54.989Z,5.30
2023-05-08T22:44:57.520Z,5.10
2023-05-08T22:49:59.948Z,5.00
2023-05-08T22:55:02.981Z,4.90
2023-05-08T23:00:07.257Z,4.90
2023-05-08T23:10:14.320Z,4.70
2023-05-08T23:15:16.973Z,4.80
2023-05-08T23:20:19.733Z,4.50
2023-05-08T23:25:22.278Z,4.60
2023-05-08T23:30:24.719Z,4.40
2023-05-08T23:35:28.443Z,4.30
2023-05-08T23:40:30.930Z,4.40
2023-05-08T23:45:33.496Z,4.40
2023-05-08T23:50:36.044Z,4.40
2023-05-08T23:55:38.470Z,4.20
